Time;durP1;ratioP1;P1;durP2;ratioP2;P2;SDS_P1;SDS_P2;PMS_P1;PMS_P2;Temp;Humidity;BMP_temperature;BMP_pressure;BME280_temperature;BME280_humidity;BME280_pressure;Samples;Min_cycle;Max_cycle;Signal;HPM_P1;HPM_P2
2024/02/25 00:00:12;;;;;;;6.97;6.57;;;8.40;21.60;;;;;;4905152;29;20284;-78
2024/02/25 00:02:41;;;;;;;7.60;7.20;;;8.50;20.60;;;;;;4899562;29;20186;-78
2024/02/25 00:05:07;;;;;;;7.00;6.60;;;8.20;21.30;;;;;;4904632;29;21077;-78
2024/02/25 00:07:32;;;;;;;7.50;7.10;;;7.80;22.10;;;;;;4914843;29;20445;-77
2024/02/25 00:09:58;;;;;;;7.63;7.23;;;7.50;22.50;;;;;;4908227;29;20490;-77
2024/02/25 00:12:24;;;;;;;7.73;7.23;;;7.50;22.70;;;;;;4906592;29;20193;-77
2024/02/25 00:14:49;;;;;;;8.10;7.70;;;7.40;23.10;;;;;;4904871;29;20228;-78
2024/02/25 00:17:15;;;;;;;7.63;7.23;;;7.20;23.70;;;;;;4910718;29;20436;-78
2024/02/25 00:19:40;;;;;;;6.77;6.37;;;7.30;23.60;;;;;;4901646;29;20592;-78
2024/02/25 00:22:06;;;;;;;7.20;6.83;;;7.30;23.30;;;;;;4906222;29;20289;-78
2024/02/25 00:24:31;;;;;;;7.13;6.73;;;7.40;23.50;;;;;;4897989;29;20213;-77
2024/02/25 00:26:57;;;;;;;6.80;6.50;;;7.30;23.20;;;;;;4906990;29;20209;-77
2024/02/25 00:29:22;;;;;;;38.60;35.20;;;7.30;23.30;;;;;;4902084;29;20192;-77
2024/02/25 00:31:48;;;;;;;8.03;7.63;;;7.40;23.10;;;;;;4908278;29;20216;-78
2024/02/25 00:34:13;;;;;;;6.80;6.50;;;7.30;23.20;;;;;;4909842;29;20272;-77
2024/02/25 00:36:39;;;;;;;7.33;7.00;;;7.50;23.40;;;;;;4901117;29;20586;-78
2024/02/25 00:39:05;;;;;;;6.50;6.10;;;7.60;22.60;;;;;;4909059;29;20679;-77
2024/02/25 00:41:30;;;;;;;6.80;6.40;;;7.50;22.70;;;;;;4908129;29;20475;-77
2024/02/25 00:43:56;;;;;;;6.90;6.50;;;7.60;22.40;;;;;;4902113;29;20201;-78
2024/02/25 00:46:21;;;;;;;7.10;6.80;;;7.70;22.50;;;;;;4904993;29;20224;-77
2024/02/25 00:48:47;;;;;;;6.50;6.20;;;8.00;22.50;;;;;;4898360;29;20264;-77
2024/02/25 00:51:12;;;;;;;7.27;6.77;;;7.90;21.70;;;;;;4905883;29;20224;-77
2024/02/25 00:53:38;;;;;;;6.70;6.50;;;7.70;22.40;;;;;;4898370;29;20269;-77
2024/02/25 00:56:04;;;;;;;7.53;7.23;;;7.40;22.40;;;;;;4899272;29;20632;-77
2024/02/25 00:58:29;;;;;;;7.20;6.80;;;7.10;23.30;;;;;;4909219;29;20203;-77
2024/02/25 01:00:55;;;;;;;7.47;7.07;;;7.00;23.90;;;;;;4899561;29;20181;-77
2024/02/25 01:03:20;;;;;;;7.33;7.03;;;6.90;24.30;;;;;;4898447;29;20678;-78
2024/02/25 01:05:46;;;;;;;6.73;6.43;;;7.00;24.20;;;;;;4897893;29;20209;-76
2024/02/25 01:08:12;;;;;;;7.80;7.40;;;7.10;23.90;;;;;;4898469;29;20204;-77
2024/02/25 01:10:38;;;;;;;7.70;7.30;;;7.30;23.80;;;;;;4905567;29;20205;-77
2024/02/25 01:13:03;;;;;;;6.23;5.93;;;7.40;23.10;;;;;;4897893;29;20524;-78
2024/02/25 01:15:29;;;;;;;6.73;6.43;;;7.40;23.60;;;;;;4903962;29;20201;-77
2024/02/25 01:17:54;;;;;;;6.50;6.20;;;7.40;22.60;;;;;;4907753;29;20180;-78
2024/02/25 01:20:20;;;;;;;5.93;5.70;;;7.30;23.00;;;;;;4898510;29;20602;-77
2024/02/25 01:22:45;;;;;;;6.43;6.10;;;7.30;22.80;;;;;;4898923;29;20220;-77
2024/02/25 01:25:11;;;;;;;6.57;6.27;;;7.10;23.60;;;;;;4906659;29;20217;-78
2024/02/25 01:27:37;;;;;;;7.70;7.30;;;7.00;23.70;;;;;;4899390;29;20268;-77
2024/02/25 01:30:04;;;;;;;6.50;6.20;;;7.00;23.80;;;;;;4906946;29;20513;-77
2024/02/25 01:32:29;;;;;;;6.60;6.40;;;7.10;23.70;;;;;;4906583;29;20196;-77
2024/02/25 01:34:55;;;;;;;6.80;6.40;;;7.10;23.70;;;;;;4897459;29;20454;-77
2024/02/25 01:37:20;;;;;;;5.93;5.63;;;7.00;23.90;;;;;;4901522;29;20559;-78
2024/02/25 01:39:46;;;;;;;6.30;6.00;;;7.10;23.60;;;;;;4900018;29;20253;-77
2024/02/25 01:42:11;;;;;;;6.10;5.80;;;7.10;23.40;;;;;;4907545;29;20211;-77
2024/02/25 01:44:59;;;;;;;6.83;6.53;;;7.00;23.50;;;;;;4901470;29;20201;-77
2024/02/25 01:47:25;;;;;;;6.87;6.53;;;6.90;23.80;;;;;;4901731;29;20185;-77
2024/02/25 01:49:50;;;;;;;7.00;6.70;;;6.80;24.20;;;;;;4905088;29;20965;-77
2024/02/25 01:52:18;;;;;;;6.10;5.90;;;6.70;24.40;;;;;;4909200;29;20199;-78
2024/02/25 01:54:44;;;;;;;7.20;6.90;;;6.60;24.60;;;;;;4907122;29;20303;-77
2024/02/25 01:57:10;;;;;;;6.57;6.37;;;6.50;25.00;;;;;;4908128;29;20453;-77
2024/02/25 01:59:36;;;;;;;8.00;7.50;;;6.40;25.20;;;;;;4905579;29;20443;-78
2024/02/25 02:02:02;;;;;;;7.60;7.30;;;6.30;25.30;;;;;;4902766;29;20823;-77
2024/02/25 02:04:28;;;;;;;6.70;6.50;;;6.30;25.60;;;;;;4913951;29;20432;-77
2024/02/25 02:06:55;;;;;;;7.17;6.87;;;6.30;25.40;;;;;;4911594;29;20432;-77
2024/02/25 02:09:20;;;;;;;7.53;7.17;;;6.30;25.70;;;;;;4899502;29;20445;-77
2024/02/25 02:11:58;;;;;;;8.27;7.90;;;6.30;25.70;;;;;;4908540;29;21036;-77
2024/02/25 02:14:24;;;;;;;7.77;7.40;;;6.30;26.00;;;;;;4901109;29;20597;-77
2024/02/25 02:16:50;;;;;;;7.10;6.80;;;6.30;25.80;;;;;;4908505;29;20441;-77
2024/02/25 02:19:15;;;;;;;7.00;6.70;;;6.30;26.20;;;;;;4899795;29;20529;-77
2024/02/25 02:21:41;;;;;;;7.93;7.53;;;6.30;26.00;;;;;;4899008;29;20196;-77
2024/02/25 02:24:07;;;;;;;7.13;6.83;;;6.20;26.00;;;;;;4909399;29;20200;-77
2024/02/25 02:26:32;;;;;;;7.47;7.17;;;6.20;26.00;;;;;;4910724;29;20200;-79
2024/02/25 02:28:58;;;;;;;7.50;7.10;;;6.30;26.20;;;;;;4909838;29;20661;-76
2024/02/25 02:31:23;;;;;;;7.23;6.93;;;6.30;25.90;;;;;;4903042;29;20660;-77
2024/02/25 02:33:49;;;;;;;6.63;6.43;;;6.30;25.80;;;;;;4910558;29;20185;-77
2024/02/25 02:36:15;;;;;;;7.53;7.13;;;6.30;25.80;;;;;;4903561;29;20869;-77
2024/02/25 02:38:42;;;;;;;6.80;6.60;;;6.30;25.60;;;;;;4911729;29;20436;-77
2024/02/25 02:41:07;;;;;;;7.43;7.13;;;6.20;26.00;;;;;;4898543;29;20201;-77
2024/02/25 02:43:33;;;;;;;7.57;7.17;;;6.10;26.20;;;;;;4907731;29;20437;-77
2024/02/25 02:45:59;;;;;;;7.53;7.23;;;6.00;26.60;;;;;;4900263;29;20909;-77
2024/02/25 02:48:24;;;;;;;7.73;7.43;;;6.00;26.80;;;;;;4907847;29;20190;-77
2024/02/25 02:50:50;;;;;;;7.60;7.27;;;5.90;26.90;;;;;;4899242;29;20208;-77
2024/02/25 02:53:16;;;;;;;7.87;7.57;;;6.00;26.80;;;;;;4906849;29;20272;-77
2024/02/25 02:55:41;;;;;;;8.57;8.17;;;6.00;26.70;;;;;;4916129;23;20232;-82
2024/02/25 02:58:07;;;;;;;7.80;7.50;;;6.00;26.70;;;;;;4906568;29;20249;-80
2024/02/25 03:00:34;;;;;;;7.10;6.80;;;6.10;26.50;;;;;;4904347;29;20185;-82
2024/02/25 03:03:00;;;;;;;7.30;7.00;;;6.00;26.30;;;;;;4905544;29;20732;-81
2024/02/25 03:05:25;;;;;;;6.80;6.60;;;6.00;26.50;;;;;;4901681;29;20454;-81
2024/02/25 03:07:53;;;;;;;7.40;6.97;;;6.10;26.30;;;;;;4900478;29;20291;-81
2024/02/25 03:10:19;;;;;;;7.43;7.03;;;6.10;26.00;;;;;;4902840;29;20205;-81
2024/02/25 03:12:45;;;;;;;7.20;6.90;;;6.10;26.20;;;;;;4908891;29;20446;-81
2024/02/25 03:15:12;;;;;;;7.80;7.50;;;6.00;26.10;;;;;;4913208;29;20446;-81
2024/02/25 03:17:39;;;;;;;7.30;7.00;;;6.10;26.60;;;;;;4907876;29;20184;-81
2024/02/25 03:20:06;;;;;;;6.47;6.27;;;6.20;26.00;;;;;;4903166;29;21016;-81
2024/02/25 03:22:31;;;;;;;7.37;7.07;;;6.20;25.70;;;;;;4918088;29;20790;-81
2024/02/25 03:24:56;;;;;;;9.10;8.63;;;6.20;25.60;;;;;;4914100;29;20437;-81
2024/02/25 03:27:22;;;;;;;6.90;6.63;;;6.20;25.90;;;;;;4903316;29;20241;-81
2024/02/25 03:29:47;;;;;;;7.33;7.03;;;6.20;25.50;;;;;;4915174;29;20189;-81
2024/02/25 03:32:13;;;;;;;7.17;6.87;;;6.30;25.60;;;;;;4919404;29;20291;-80
2024/02/25 03:34:39;;;;;;;7.73;7.33;;;6.30;25.20;;;;;;4910018;29;20189;-81
2024/02/25 03:37:05;;;;;;;7.20;6.90;;;6.30;25.30;;;;;;4901290;29;20189;-81
2024/02/25 03:39:31;;;;;;;7.10;6.80;;;6.20;25.40;;;;;;4907972;29;20814;-82
2024/02/25 03:41:57;;;;;;;7.33;7.03;;;6.20;25.60;;;;;;4909086;29;20196;-81
2024/02/25 03:44:22;;;;;;;7.80;7.50;;;6.20;25.60;;;;;;4908863;29;20434;-80
2024/02/25 03:46:48;;;;;;;7.67;7.37;;;6.20;25.60;;;;;;4908962;29;20216;-81
2024/02/25 03:49:13;;;;;;;7.57;7.27;;;6.20;25.40;;;;;;4911135;29;20185;-81
2024/02/25 03:51:40;;;;;;;7.10;6.80;;;6.20;25.30;;;;;;4905223;29;20213;-81
2024/02/25 03:54:05;;;;;;;7.97;7.60;;;6.30;25.70;;;;;;4907231;29;20192;-81
2024/02/25 03:56:32;;;;;;;6.63;6.33;;;6.30;25.10;;;;;;4907089;29;20465;-80
2024/02/25 03:58:57;;;;;;;7.77;7.47;;;6.20;25.30;;;;;;4908625;29;20564;-81
2024/02/25 04:01:24;;;;;;;7.53;7.23;;;6.30;25.10;;;;;;4905899;29;20441;-80
2024/02/25 04:03:50;;;;;;;6.93;6.63;;;6.30;25.00;;;;;;4905760;29;20196;-80
2024/02/25 04:06:15;;;;;;;7.20;7.00;;;6.40;25.00;;;;;;4901530;29;20465;-81
2024/02/25 04:08:41;;;;;;;7.00;6.70;;;6.50;24.90;;;;;;4909547;29;20488;-81
2024/02/25 04:11:07;;;;;;;7.03;6.73;;;6.60;24.20;;;;;;4909053;29;20752;-81
2024/02/25 04:13:32;;;;;;;7.20;6.90;;;6.60;24.40;;;;;;4902916;29;20217;-81
2024/02/25 04:15:58;;;;;;;7.20;6.80;;;6.60;24.30;;;;;;4909689;29;20211;-81
2024/02/25 04:18:23;;;;;;;7.10;6.70;;;6.60;24.40;;;;;;4912160;29;20271;-82
2024/02/25 04:20:49;;;;;;;7.00;6.70;;;6.60;24.10;;;;;;4905934;29;20189;-81
2024/02/25 04:23:14;;;;;;;7.30;6.90;;;6.70;23.90;;;;;;4901786;29;20193;-81
2024/02/25 04:25:40;;;;;;;7.63;7.27;;;6.70;23.60;;;;;;4902063;29;20221;-81
2024/02/25 04:28:06;;;;;;;7.37;7.07;;;6.60;24.10;;;;;;4909919;29;20193;-82
2024/02/25 04:30:33;;;;;;;7.70;7.20;;;6.70;23.90;;;;;;4906568;29;20476;-81
2024/02/25 04:32:58;;;;;;;7.17;6.87;;;6.50;24.40;;;;;;4909376;29;20440;-81
2024/02/25 04:35:28;;;;;;;6.67;6.40;;;6.40;24.20;;;;;;4911023;29;20453;-81
2024/02/25 04:37:54;;;;;;;6.60;6.30;;;6.50;24.20;;;;;;4912024;29;20689;-81
2024/02/25 04:40:20;;;;;;;6.80;6.50;;;6.60;24.10;;;;;;4907652;29;20426;-82
2024/02/25 04:42:45;;;;;;;7.53;7.13;;;6.50;23.70;;;;;;4900433;29;20177;-81
2024/02/25 04:45:11;;;;;;;6.60;6.30;;;6.50;24.30;;;;;;4909123;29;20228;-81
2024/02/25 04:47:37;;;;;;;6.47;6.27;;;6.50;24.20;;;;;;4910389;29;20267;-81
2024/02/25 04:50:03;;;;;;;7.00;6.70;;;6.50;24.20;;;;;;4911778;29;20250;-81
2024/02/25 04:52:29;;;;;;;6.80;6.50;;;6.50;24.10;;;;;;4912371;29;20184;-81
2024/02/25 04:54:55;;;;;;;6.73;6.43;;;6.40;24.40;;;;;;4911784;29;20420;-81
2024/02/25 04:57:21;;;;;;;7.00;6.70;;;6.50;24.30;;;;;;4908184;29;20434;-81
2024/02/25 04:59:46;;;;;;;7.30;6.90;;;6.50;23.80;;;;;;4906116;29;20699;-81
2024/02/25 05:02:12;;;;;;;7.10;6.80;;;6.40;24.30;;;;;;4915774;29;20189;-81
2024/02/25 05:04:42;;;;;;;7.20;6.90;;;6.50;24.10;;;;;;4908199;29;20273;-81
2024/02/25 05:07:08;;;;;;;6.73;6.43;;;6.70;23.60;;;;;;4908255;29;20520;-81
2024/02/25 05:09:34;;;;;;;7.00;6.70;;;6.70;23.60;;;;;;4910561;29;20852;-81
2024/02/25 05:12:00;;;;;;;6.43;6.23;;;6.90;23.00;;;;;;4911703;29;20475;-81
2024/02/25 05:14:26;;;;;;;6.87;6.57;;;7.10;22.70;;;;;;4911368;29;20231;-81
2024/02/25 05:16:51;;;;;;;7.00;6.53;;;7.10;22.70;;;;;;4905344;29;20458;-80
2024/02/25 05:19:17;;;;;;;6.90;6.60;;;6.80;23.10;;;;;;4910715;29;20489;-81
2024/02/25 05:21:44;;;;;;;6.93;6.60;;;6.90;22.90;;;;;;4907602;29;20740;-81
2024/02/25 05:24:10;;;;;;;7.13;6.80;;;7.00;23.00;;;;;;4890382;29;21049;-81
2024/02/25 05:26:36;;;;;;;7.00;6.70;;;7.20;22.50;;;;;;4903548;29;20933;-82
2024/02/25 05:29:02;;;;;;;7.20;6.90;;;7.30;21.90;;;;;;4902839;29;20441;-80
2024/02/25 05:31:27;;;;;;;6.60;6.30;;;7.30;22.20;;;;;;4907519;29;20205;-80
2024/02/25 05:33:53;;;;;;;6.90;6.60;;;7.30;22.80;;;;;;4908605;29;20189;-81
2024/02/25 05:36:22;;;;;;;6.77;6.40;;;7.20;22.10;;;;;;4904329;29;20215;-81
2024/02/25 05:38:48;;;;;;;7.40;7.10;;;7.10;22.50;;;;;;4906092;29;20200;-80
2024/02/25 05:41:14;;;;;;;7.07;6.77;;;7.00;22.50;;;;;;4906652;29;20844;-80
2024/02/25 05:43:41;;;;;;;6.83;6.53;;;6.90;22.90;;;;;;4906904;29;20465;-81
2024/02/25 05:46:06;;;;;;;5.53;5.33;;;6.90;23.00;;;;;;4910393;29;20277;-81
2024/02/25 05:48:32;;;;;;;5.60;5.40;;;6.80;23.00;;;;;;4904778;29;20565;-80
2024/02/25 05:50:58;;;;;;;6.10;5.80;;;6.80;23.40;;;;;;4902478;29;20213;-80
2024/02/25 05:53:24;;;;;;;6.47;6.17;;;6.80;23.40;;;;;;4902622;29;20774;-80
2024/02/25 05:55:49;;;;;;;6.90;6.47;;;6.80;23.70;;;;;;4903074;29;20252;-81
2024/02/25 05:58:15;;;;;;;6.83;6.33;;;6.90;23.40;;;;;;4901713;29;20196;-80
2024/02/25 06:00:42;;;;;;;6.10;5.80;;;6.80;23.60;;;;;;4904403;29;20200;-81
2024/02/25 06:03:08;;;;;;;6.00;5.80;;;6.70;23.60;;;;;;4902306;29;20193;-80
2024/02/25 06:05:33;;;;;;;6.37;6.07;;;6.70;23.70;;;;;;4906284;29;20476;-80
2024/02/25 06:08:00;;;;;;;6.50;6.10;;;6.70;24.50;;;;;;4910911;29;20197;-81
2024/02/25 06:10:26;;;;;;;6.57;6.27;;;6.60;23.90;;;;;;4913599;29;20236;-81
2024/02/25 06:12:52;;;;;;;6.27;5.97;;;6.60;23.90;;;;;;4913965;29;20434;-81
2024/02/25 06:15:18;;;;;;;7.53;7.13;;;6.50;24.30;;;;;;4908613;29;20215;-81
2024/02/25 06:17:44;;;;;;;5.80;5.60;;;6.50;24.20;;;;;;4909397;29;20465;-82
2024/02/25 06:20:10;;;;;;;6.80;6.50;;;6.40;24.20;;;;;;4905102;29;20512;-81
2024/02/25 06:22:37;;;;;;;6.67;6.37;;;6.50;24.20;;;;;;4904500;29;20200;-80
2024/02/25 06:25:04;;;;;;;6.33;6.03;;;6.50;24.10;;;;;;4902947;29;20488;-80
2024/02/25 06:27:30;;;;;;;6.73;6.40;;;6.50;24.20;;;;;;4902764;29;20577;-81
2024/02/25 06:29:56;;;;;;;6.47;6.17;;;6.50;23.90;;;;;;4902028;29;20449;-81
2024/02/25 06:32:25;;;;;;;6.73;6.33;;;6.60;23.90;;;;;;4901853;29;20799;-81
2024/02/25 06:34:51;;;;;;;7.60;7.20;;;6.70;23.20;;;;;;4902471;29;20186;-79
2024/02/25 06:37:16;;;;;;;7.50;7.00;;;6.70;23.30;;;;;;4904514;29;20540;-79
2024/02/25 06:39:41;;;;;;;6.07;5.83;;;6.60;23.80;;;;;;4905338;29;20497;-80
2024/02/25 06:42:07;;;;;;;6.97;6.67;;;6.70;24.20;;;;;;4905077;29;20197;-80
2024/02/25 06:44:33;;;;;;;6.90;6.50;;;6.70;23.70;;;;;;4906183;29;20185;-80
2024/02/25 06:46:58;;;;;;;6.33;6.13;;;6.70;23.60;;;;;;4906241;29;20205;-80
2024/02/25 06:49:27;;;;;;;7.47;7.03;;;6.60;23.80;;;;;;4904166;29;20193;-80
2024/02/25 06:51:54;;;;;;;7.10;6.80;;;6.60;23.90;;;;;;4905671;29;20251;-80
2024/02/25 06:54:20;;;;;;;6.83;6.33;;;6.50;24.10;;;;;;4905438;29;20446;-80
2024/02/25 06:56:45;;;;;;;6.80;6.50;;;6.50;24.20;;;;;;4903554;29;20492;-80
2024/02/25 06:59:11;;;;;;;7.40;6.80;;;6.50;24.10;;;;;;4903164;29;20201;-80
2024/02/25 07:01:36;;;;;;;6.50;6.20;;;6.50;24.00;;;;;;4905376;29;20704;-80
2024/02/25 07:04:02;;;;;;;7.67;7.27;;;6.60;23.60;;;;;;4903454;29;20669;-80
2024/02/25 07:06:27;;;;;;;7.73;7.33;;;6.60;23.60;;;;;;4901845;29;20209;-80
2024/02/25 07:08:53;;;;;;;6.60;6.30;;;6.50;24.10;;;;;;4903840;29;20204;-81
2024/02/25 07:11:20;;;;;;;6.70;6.30;;;6.50;24.30;;;;;;4906295;29;20693;-82
2024/02/25 07:13:48;;;;;;;8.00;7.50;;;6.50;24.30;;;;;;4909914;29;20259;-81
2024/02/25 07:16:13;;;;;;;6.73;6.50;;;6.60;24.40;;;;;;4908894;29;20453;-81
2024/02/25 07:18:39;;;;;;;6.90;6.60;;;6.70;23.80;;;;;;4908038;29;20470;-79
2024/02/25 07:21:07;;;;;;;6.77;6.47;;;6.80;23.40;;;;;;4904510;29;20436;-81
2024/02/25 07:23:39;;;;;;;6.10;5.80;;;6.90;23.40;;;;;;4901393;29;20197;-81
2024/02/25 07:26:05;;;;;;;6.50;6.17;;;6.90;22.60;;;;;;4901004;29;20445;-83
2024/02/25 07:28:31;;;;;;;6.17;5.90;;;7.00;22.10;;;;;;4906077;29;20517;-80
2024/02/25 07:31:03;;;;;;;6.20;5.90;;;6.80;21.90;;;;;;4905818;29;20212;-82
2024/02/25 07:33:29;;;;;;;6.00;5.80;;;6.90;22.20;;;;;;4887860;29;20194;-81
2024/02/25 07:35:58;;;;;;;6.40;6.10;;;7.00;22.00;;;;;;4890388;29;21351;-82
2024/02/25 07:38:26;;;;;;;5.83;5.47;;;7.30;22.20;;;;;;4907838;29;20465;-80
2024/02/25 07:40:53;;;;;;;6.30;6.00;;;7.40;21.10;;;;;;4907932;29;20430;-81
2024/02/25 07:43:19;;;;;;;5.80;5.60;;;7.40;21.20;;;;;;4904738;29;20426;-81
2024/02/25 07:45:45;;;;;;;6.90;6.60;;;7.50;21.50;;;;;;4900885;29;20449;-82
2024/02/25 07:48:11;;;;;;;6.13;5.83;;;7.60;20.90;;;;;;4902284;29;20193;-82
2024/02/25 07:50:36;;;;;;;6.10;5.80;;;7.70;20.60;;;;;;4901493;29;20689;-79
2024/02/25 07:53:02;;;;;;;5.70;5.50;;;7.80;20.60;;;;;;4902591;29;20429;-80
2024/02/25 07:55:27;;;;;;;5.67;5.33;;;7.90;20.50;;;;;;4900570;29;20220;-80
2024/02/25 07:57:53;;;;;;;6.13;5.83;;;7.90;20.40;;;;;;4901865;29;20182;-80
2024/02/25 08:00:19;;;;;;;5.70;5.43;;;7.90;20.30;;;;;;4904846;29;20182;-79
2024/02/25 08:02:44;;;;;;;5.67;5.37;;;7.70;20.10;;;;;;4900804;29;20178;-79
2024/02/25 08:05:10;;;;;;;5.43;5.23;;;7.70;20.70;;;;;;4901228;29;20461;-79
2024/02/25 08:07:35;;;;;;;6.20;5.90;;;7.80;20.50;;;;;;4904327;29;20651;-79
2024/02/25 08:10:02;;;;;;;4.90;4.70;;;7.80;20.40;;;;;;4904490;29;20189;-79
2024/02/25 08:12:27;;;;;;;5.30;5.10;;;7.90;20.00;;;;;;4899486;29;20193;-79
2024/02/25 08:14:54;;;;;;;5.80;5.50;;;8.10;20.10;;;;;;4899167;29;20422;-80
2024/02/25 08:17:20;;;;;;;8.40;7.70;;;8.10;20.00;;;;;;4899158;29;20185;-81
2024/02/25 08:19:46;;;;;;;12.80;11.80;;;8.10;19.90;;;;;;4897828;29;20607;-80
2024/02/25 08:22:11;;;;;;;5.67;5.37;;;8.10;19.70;;;;;;4900159;29;20464;-81
2024/02/25 08:24:37;;;;;;;5.10;4.90;;;8.20;19.80;;;;;;4900460;29;20204;-81
2024/02/25 08:27:04;;;;;;;5.73;5.40;;;8.20;19.70;;;;;;4897739;29;20235;-80
2024/02/25 08:29:30;;;;;;;5.30;5.10;;;8.30;19.60;;;;;;4900241;29;20216;-81
2024/02/25 08:31:55;;;;;;;5.30;5.00;;;8.30;19.60;;;;;;4902462;29;20969;-80
2024/02/25 08:34:22;;;;;;;5.43;5.20;;;8.30;19.50;;;;;;4882108;29;20657;-80
2024/02/25 08:36:47;;;;;;;5.23;5.00;;;8.30;19.80;;;;;;4898449;29;20537;-80
2024/02/25 08:39:13;;;;;;;5.70;5.50;;;8.30;19.40;;;;;;4898151;29;20596;-81
2024/02/25 08:41:39;;;;;;;4.93;4.73;;;8.30;19.50;;;;;;4897534;29;20181;-81
2024/02/25 08:44:04;;;;;;;5.50;5.20;;;8.40;19.80;;;;;;4899117;29;20629;-81
2024/02/25 08:46:30;;;;;;;5.57;5.10;;;8.50;19.30;;;;;;4903887;29;20456;-80
2024/02/25 08:48:56;;;;;;;5.30;5.10;;;8.50;19.50;;;;;;4899893;29;20624;-81
2024/02/25 08:51:21;;;;;;;5.03;4.83;;;8.50;19.30;;;;;;4900772;29;20209;-78
2024/02/25 08:53:47;;;;;;;5.50;5.30;;;8.40;18.80;;;;;;4896534;29;20185;-78
2024/02/25 08:56:15;;;;;;;5.60;5.30;;;8.30;19.20;;;;;;4919501;23;20237;-81
2024/02/25 08:58:43;;;;;;;5.70;5.50;;;8.20;19.40;;;;;;4903491;29;20185;-82
2024/02/25 09:01:09;;;;;;;6.17;5.97;;;8.20;19.50;;;;;;4888384;29;20549;-82
2024/02/25 09:03:35;;;;;;;5.40;5.20;;;8.20;19.70;;;;;;4903575;29;20461;-82
2024/02/25 09:06:03;;;;;;;5.67;5.37;;;8.10;20.00;;;;;;4904467;29;20508;-82
2024/02/25 09:08:32;;;;;;;5.30;5.10;;;8.10;19.20;;;;;;4878899;29;20442;-82
2024/02/25 09:10:58;;;;;;;5.07;4.87;;;8.00;19.70;;;;;;4900980;29;20485;-82
2024/02/25 09:13:30;;;;;;;5.00;4.80;;;8.10;19.60;;;;;;4902326;29;20578;-81
2024/02/25 09:15:55;;;;;;;4.87;4.67;;;8.10;19.40;;;;;;4903937;29;20281;-82
2024/02/25 09:18:24;;;;;;;5.27;4.97;;;8.00;19.60;;;;;;4902001;29;20449;-81
2024/02/25 09:20:50;;;;;;;5.60;5.20;;;8.00;19.30;;;;;;4900399;29;20209;-82
2024/02/25 09:23:15;;;;;;;5.03;4.70;;;8.00;19.40;;;;;;4885301;29;20436;-81
2024/02/25 09:26:04;;;;;;;5.10;4.80;;;8.10;19.10;;;;;;4885281;29;20231;-80
2024/02/25 09:28:32;;;;;;;4.87;4.67;;;8.20;18.90;;;;;;4901992;29;20198;-81
2024/02/25 09:30:58;;;;;;;4.70;4.40;;;8.20;18.70;;;;;;4885857;29;21051;-82
2024/02/25 09:33:23;;;;;;;4.93;4.73;;;8.20;18.90;;;;;;4885062;29;20524;-82
2024/02/25 09:36:07;;;;;;;4.70;4.50;;;8.30;18.80;;;;;;4888009;29;20292;-82
2024/02/25 09:38:36;;;;;;;4.30;4.10;;;8.40;18.80;;;;;;4886810;29;20189;-83
2024/02/25 09:41:09;;;;;;;4.47;4.27;;;8.60;18.30;;;;;;4888230;29;20438;-81
2024/02/25 09:43:39;;;;;;;4.17;3.97;;;8.70;18.00;;;;;;4908018;29;20449;-82
2024/02/25 09:46:05;;;;;;;4.63;4.43;;;8.70;17.30;;;;;;4893301;29;20977;-80
2024/02/25 09:48:43;;;;;;;4.33;4.13;;;8.70;17.20;;;;;;4884066;29;20445;-82
2024/02/25 09:51:30;;;;;;;4.97;4.77;;;8.80;17.80;;;;;;4899503;29;20485;-81
2024/02/25 09:53:57;;;;;;;4.87;4.57;;;8.80;16.60;;;;;;4878349;29;20433;-82
2024/02/25 09:56:23;;;;;;;5.07;4.77;;;8.80;17.30;;;;;;4884885;29;20884;-82
2024/02/25 09:58:49;;;;;;;4.50;4.30;;;8.70;17.20;;;;;;4884503;29;20438;-80
2024/02/25 10:01:15;;;;;;;4.83;4.60;;;8.80;17.20;;;;;;4883323;29;20429;-80
2024/02/25 10:03:45;;;;;;;4.67;4.47;;;8.90;16.30;;;;;;4890610;29;20871;-81
2024/02/25 10:06:11;;;;;;;3.93;3.83;;;9.00;16.30;;;;;;4891516;29;20445;-81
2024/02/25 10:08:53;;;;;;;4.43;4.20;;;9.00;15.90;;;;;;4901492;29;22667;-81
2024/02/25 10:11:18;;;;;;;4.10;4.00;;;9.00;15.70;;;;;;4885982;29;20213;-81
2024/02/25 10:13:48;;;;;;;4.07;3.87;;;9.10;15.50;;;;;;4886660;29;20486;-80
2024/02/25 10:16:15;;;;;;;4.13;4.03;;;9.20;15.20;;;;;;4885829;29;20273;-80
2024/02/25 10:18:42;;;;;;;4.00;3.90;;;9.30;15.80;;;;;;4886638;29;20522;-80
2024/02/25 10:21:10;;;;;;;3.80;3.70;;;9.30;15.20;;;;;;4902736;29;20945;-80
2024/02/25 10:23:36;;;;;;;4.43;4.20;;;9.30;15.00;;;;;;4885785;29;20555;-81
2024/02/25 10:26:18;;;;;;;4.43;4.23;;;9.40;15.10;;;;;;4886444;29;21159;-80
2024/02/25 10:28:44;;;;;;;3.80;3.70;;;9.50;14.90;;;;;;4885584;29;20472;-81
2024/02/25 10:31:14;;;;;;;4.50;4.30;;;9.70;15.10;;;;;;4902396;29;20457;-82
2024/02/25 10:33:41;;;;;;;4.47;4.27;;;9.90;14.60;;;;;;4887028;29;20429;-82
2024/02/25 10:36:19;;;;;;;4.07;3.87;;;10.00;13.20;;;;;;4873893;29;20505;-80
2024/02/25 10:38:46;;;;;;;3.40;3.30;;;9.90;13.10;;;;;;4902546;29;20426;-81
2024/02/25 10:41:13;;;;;;;3.23;3.13;;;10.00;12.20;;;;;;4882971;29;20426;-81
2024/02/25 10:43:39;;;;;;;3.67;3.57;;;10.00;11.90;;;;;;4888809;29;21666;-81
2024/02/25 10:46:30;;;;;;;3.80;3.63;;;10.00;12.20;;;;;;4886978;29;20477;-81
2024/02/25 10:49:02;;;;;;;33.07;30.10;;;10.00;12.00;;;;;;4890067;29;20429;-82
2024/02/25 10:51:33;;;;;;;6.47;6.17;;;10.10;12.00;;;;;;4886351;29;20465;-81
2024/02/25 10:53:59;;;;;;;8.43;7.83;;;10.20;11.30;;;;;;4896343;29;20441;-82
2024/02/25 10:56:29;;;;;;;8.77;8.20;;;10.20;11.10;;;;;;4885835;29;20461;-82
2024/02/25 10:58:57;;;;;;;3.40;3.30;;;10.30;12.40;;;;;;4884062;29;20946;-82
2024/02/25 11:01:24;;;;;;;3.10;3.00;;;10.30;10.70;;;;;;4906639;29;20799;-82
2024/02/25 11:07:14;;;;;;;3.60;3.50;;;10.60;9.80;;;;;;4897816;29;20445;-82
2024/02/25 11:10:19;;;;;;;3.07;2.97;;;10.60;9.80;;;;;;4885701;29;20874;-81
2024/02/25 11:12:53;;;;;;;3.60;3.50;;;10.70;9.60;;;;;;4885984;29;20429;-82
2024/02/25 11:15:28;;;;;;;4.13;4.03;;;10.70;9.40;;;;;;4893620;29;20794;-80
2024/02/25 11:18:22;;;;;;;3.83;3.73;;;10.80;9.60;;;;;;4896451;29;20430;-82
2024/02/25 11:21:26;;;;;;;3.60;3.50;;;10.70;9.90;;;;;;4870226;29;20460;-82
2024/02/25 11:23:52;;;;;;;4.30;4.10;;;10.70;10.00;;;;;;4900908;29;20498;-82
2024/02/25 11:33:03;;;;;;;3.33;3.23;;;10.60;10.00;;;;;;4903662;29;20465;-82
2024/02/25 11:35:45;;;;;;;4.23;4.13;;;10.70;10.70;;;;;;4885635;29;20421;-81
2024/02/25 11:38:53;;;;;;;4.03;3.93;;;10.80;10.10;;;;;;4883819;29;20433;-81
2024/02/25 11:41:36;;;;;;;;;;;;;;;;;;;;;
2024/02/25 11:44:12;;;;;;;4.40;4.20;;;10.80;10.50;;;;;;4904835;29;20545;-83
2024/02/25 11:47:19;;;;;;;4.73;4.53;;;10.80;10.40;;;;;;4903945;29;20441;-82
2024/02/25 11:53:29;;;;;;;4.40;4.10;;;11.00;10.20;;;;;;4900875;29;20470;-82
2024/02/25 11:55:55;;;;;;;4.13;3.93;;;11.10;9.70;;;;;;4850796;29;20469;-82
2024/02/25 11:58:44;;;;;;;4.47;4.17;;;11.30;9.40;;;;;;4902381;29;20436;-83
2024/02/25 12:01:10;;;;;;;4.13;4.03;;;11.20;9.30;;;;;;4900205;29;20426;-83
2024/02/25 12:03:39;;;;;;;4.60;4.40;;;11.20;9.20;;;;;;4884157;29;20458;-83
2024/02/25 12:06:05;;;;;;;4.10;4.00;;;11.20;8.60;;;;;;4884820;29;20457;-84
2024/02/25 12:08:33;;;;;;;3.70;3.60;;;11.30;8.80;;;;;;4883298;29;20428;-85
2024/02/25 12:11:02;;;;;;;4.23;3.93;;;11.40;8.70;;;;;;4883846;29;20214;-85
2024/02/25 12:13:30;;;;;;;3.33;3.23;;;11.40;8.80;;;;;;4887838;29;20436;-85
2024/02/25 12:15:59;;;;;;;4.17;3.97;;;11.50;8.10;;;;;;4897218;29;20817;-83
2024/02/25 12:18:24;;;;;;;3.67;3.57;;;11.50;8.10;;;;;;4908299;29;20481;-82
2024/02/25 12:20:51;;;;;;;5.07;4.67;;;11.60;8.20;;;;;;4908447;29;20452;-84
2024/02/25 12:23:23;;;;;;;3.73;3.60;;;11.70;7.70;;;;;;4891086;29;20190;-84
2024/02/25 12:26:14;;;;;;;;;;;;;;;;;;;;;
2024/02/25 12:28:46;;;;;;;3.30;3.20;;;11.80;6.40;;;;;;4901933;29;20505;-82
2024/02/25 12:31:21;;;;;;;3.20;3.07;;;11.70;4.70;;;;;;4884725;29;20473;-81
2024/02/25 12:33:50;;;;;;;3.10;3.00;;;11.70;4.70;;;;;;4903791;29;20460;-82
2024/02/25 12:36:16;;;;;;;3.53;3.43;;;11.70;4.80;;;;;;4902573;29;20442;-85
2024/02/25 12:39:05;;;;;;;3.40;3.30;;;11.70;4.80;;;;;;4900576;29;20974;-83
2024/02/25 12:42:32;;;;;;;2.90;2.80;;;11.80;5.10;;;;;;4861243;29;20442;-84
2024/02/25 12:45:44;;;;;;;3.50;3.30;;;11.80;4.90;;;;;;4862089;29;20444;-84
2024/02/25 12:52:11;;;;;;;3.03;2.83;;;12.00;3.40;;;;;;4872930;29;20553;-82
2024/02/25 12:55:02;;;;;;;3.27;3.07;;;12.10;3.50;;;;;;4855896;29;20435;-82
2024/02/25 12:57:31;;;;;;;3.20;3.10;;;12.20;3.10;;;;;;4852511;29;20220;-85
2024/02/25 12:59:56;;;;;;;2.40;2.30;;;12.30;3.00;;;;;;4871066;29;20472;-80
2024/02/25 13:02:22;;;;;;;2.97;2.87;;;12.40;2.00;;;;;;4870883;29;20449;-82
2024/02/25 13:04:51;;;;;;;3.37;3.17;;;12.40;1.40;;;;;;4884460;29;20192;-82
2024/02/25 13:07:16;;;;;;;3.27;3.17;;;12.30;1.20;;;;;;4887535;29;20248;-81
2024/02/25 13:13:37;;;;;;;2.50;2.50;;;12.50;1.00;;;;;;4865663;29;20199;-81
2024/02/25 13:16:06;;;;;;;2.57;2.47;;;12.50;1.00;;;;;;4877217;29;20437;-82
2024/02/25 13:19:18;;;;;;;3.70;3.50;;;12.40;1.00;;;;;;4873991;29;20437;-81
2024/02/25 13:22:32;;;;;;;3.37;3.27;;;12.40;1.00;;;;;;4865342;29;20464;-83
2024/02/25 13:25:03;;;;;;;3.73;3.50;;;12.50;1.20;;;;;;4882024;29;20432;-82